Time;durP1;ratioP1;P1;durP2;ratioP2;P2;SDS_P1;SDS_P2;PMS_P1;PMS_P2;Temp;Humidity;BMP_temperature;BMP_pressure;BME280_temperature;BME280_humidity;BME280_pressure;Samples;Min_cycle;Max_cycle;Signal;HPM_P1;HPM_P2
2023/12/22 00:01:08;;;;;;;2.85;1.10;;;;;;;8.52;68.53;97589.38;4407632;32;33847;-81
2023/12/22 00:03:36;;;;;;;2.00;1.23;;;;;;;8.79;67.92;97587.41;4395303;32;32642;-81
2023/12/22 00:06:03;;;;;;;0.43;0.43;;;;;;;8.77;67.80;97589.28;4418914;32;34469;-81
2023/12/22 00:08:31;;;;;;;1.85;1.75;;;;;;;8.82;68.06;97575.81;4394295;32;34197;-81
2023/12/22 00:10:59;;;;;;;0.73;0.52;;;;;;;9.10;67.11;97603.59;4421630;32;34322;-81
2023/12/22 00:13:27;;;;;;;2.67;2.47;;;;;;;9.08;67.02;97608.16;4407495;32;32973;-81
2023/12/22 00:15:55;;;;;;;2.65;2.47;;;;;;;9.34;66.33;97609.72;4395496;32;33532;-81
2023/12/22 00:18:23;;;;;;;1.37;1.33;;;;;;;9.23;66.53;97612.28;4406388;32;33265;-81
2023/12/22 00:20:50;;;;;;;6.28;2.03;;;;;;;9.33;66.02;97610.66;4405362;32;34457;-81
2023/12/22 00:23:18;;;;;;;0.50;0.50;;;;;;;9.33;66.20;97618.56;4408024;32;32354;-81
2023/12/22 00:25:46;;;;;;;2.47;1.35;;;;;;;9.24;66.50;97617.44;4419411;32;33882;-81
2023/12/22 00:28:14;;;;;;;1.85;1.75;;;;;;;9.27;66.61;97629.56;4394703;32;33886;-80
2023/12/22 00:30:41;;;;;;;1.15;1.15;;;;;;;9.08;67.25;97637.13;4393729;32;33153;-81
2023/12/22 00:33:09;;;;;;;0.45;0.45;;;;;;;9.29;67.06;97653.97;4407319;32;33763;-80
2023/12/22 00:35:37;;;;;;;1.20;1.08;;;;;;;9.16;67.29;97653.19;4407059;32;33080;-80
2023/12/22 00:38:05;;;;;;;0.90;0.90;;;;;;;9.28;67.14;97660.19;4407165;32;34704;-81
2023/12/22 00:40:33;;;;;;;0.10;0.10;;;;;;;8.57;70.11;97666.16;4395075;32;34241;-80
2023/12/22 00:43:01;;;;;;;0.00;0.00;;;;;;;8.62;70.81;97662.25;4407830;32;34348;-80
2023/12/22 00:45:28;;;;;;;0.28;0.28;;;;;;;8.78;70.05;97648.00;4406952;32;34109;-80
2023/12/22 00:47:56;;;;;;;0.10;0.10;;;;;;;8.50;71.10;97641.22;4381584;32;32726;-80
2023/12/22 00:50:24;;;;;;;0.00;0.00;;;;;;;8.54;71.46;97647.94;4405195;32;32322;-80
2023/12/22 00:52:51;;;;;;;0.82;0.82;;;;;;;8.67;70.50;97646.16;4406654;32;33390;-79
2023/12/22 00:55:19;;;;;;;0.70;0.70;;;;;;;8.57;71.02;97658.25;4407122;32;34173;-79
2023/12/22 00:57:47;;;;;;;0.00;0.00;;;;;;;8.35;72.62;97678.09;4394043;32;32974;-79
2023/12/22 01:00:15;;;;;;;0.45;0.45;;;;;;;8.53;71.67;97693.63;4406837;32;34094;-79
2023/12/22 01:02:43;;;;;;;0.10;0.10;;;;;;;8.57;71.41;97713.50;4406663;32;31331;-79
2023/12/22 01:05:11;;;;;;;0.98;0.80;;;;;;;8.71;70.93;97694.97;4394558;32;33569;-79
2023/12/22 01:07:39;;;;;;;0.20;0.20;;;;;;;8.64;70.70;97647.22;4405704;32;33731;-79
2023/12/22 01:10:07;;;;;;;0.35;0.35;;;;;;;8.68;70.98;97611.00;4406182;32;34208;-80
2023/12/22 01:12:35;;;;;;;0.10;0.10;;;;;;;8.82;70.47;97610.84;4405508;32;32705;-80
2023/12/22 01:15:02;;;;;;;0.00;0.00;;;;;;;9.19;68.46;97608.19;4406648;32;33779;-79
2023/12/22 01:17:31;;;;;;;0.00;0.00;;;;;;;9.37;67.98;97624.47;4405558;32;33333;-79
2023/12/22 01:19:58;;;;;;;0.00;0.00;;;;;;;9.30;68.06;97647.75;4406178;32;32988;-79
2023/12/22 01:22:26;;;;;;;0.20;0.20;;;;;;;9.31;68.38;97654.72;4393913;32;32433;-79
2023/12/22 01:24:54;;;;;;;0.28;0.10;;;;;;;9.33;68.08;97652.81;4405684;32;34410;-80
2023/12/22 01:27:22;;;;;;;0.30;0.10;;;;;;;9.20;68.11;97638.84;4405971;32;34031;-79
2023/12/22 01:29:50;;;;;;;0.20;0.20;;;;;;;9.33;67.77;97647.53;4405523;32;32669;-80
2023/12/22 01:32:17;;;;;;;0.30;0.30;;;;;;;9.39;67.43;97649.72;4406293;32;33085;-79
2023/12/22 01:34:45;;;;;;;0.10;0.10;;;;;;;8.92;69.32;97646.09;4395016;32;32874;-79
2023/12/22 01:37:13;;;;;;;5.15;0.80;;;;;;;9.15;68.15;97644.44;4408548;32;33208;-80
2023/12/22 01:39:41;;;;;;;0.03;0.03;;;;;;;9.31;67.53;97652.09;4408353;32;34187;-80
2023/12/22 01:42:08;;;;;;;0.20;0.20;;;;;;;9.11;67.68;97650.03;4396089;32;32786;-80
2023/12/22 01:44:36;;;;;;;0.00;0.00;;;;;;;9.03;68.30;97644.50;4395899;32;34053;-80
2023/12/22 01:47:04;;;;;;;0.00;0.00;;;;;;;8.79;67.90;97645.28;4408219;32;33996;-80
2023/12/22 01:49:32;;;;;;;0.43;0.43;;;;;;;8.65;68.82;97653.31;4407076;32;34446;-80
2023/12/22 01:52:01;;;;;;;0.00;0.00;;;;;;;8.55;69.14;97668.91;4421911;32;33554;-80
2023/12/22 01:54:29;;;;;;;0.00;0.00;;;;;;;8.41;68.98;97676.91;4408277;32;33027;-80
2023/12/22 01:56:57;;;;;;;0.75;0.75;;;;;;;8.49;68.49;97673.72;4407185;32;32892;-80
2023/12/22 01:59:25;;;;;;;0.00;0.00;;;;;;;8.24;69.13;97664.88;4408793;32;33199;-79
2023/12/22 02:01:53;;;;;;;0.00;0.00;;;;;;;8.39;68.72;97653.31;4394565;32;33283;-80
2023/12/22 02:04:22;;;;;;;0.00;0.00;;;;;;;8.54;68.30;97637.44;4408283;32;33401;-80
2023/12/22 02:06:49;;;;;;;0.00;0.00;;;;;;;8.63;67.96;97618.38;4395899;32;34128;-80
2023/12/22 02:09:17;;;;;;;0.00;0.00;;;;;;;8.64;67.79;97594.59;4409667;32;34031;-80
2023/12/22 02:11:45;;;;;;;0.00;0.00;;;;;;;8.70;67.31;97603.84;4408208;32;32999;-80
2023/12/22 02:14:12;;;;;;;0.00;0.00;;;;;;;9.04;66.55;97581.19;4395881;32;32987;-80
2023/12/22 02:16:51;;;;;;;0.00;0.00;;;;;;;9.13;65.62;97580.53;4404615;32;124573;-80
2023/12/22 02:19:42;;;;;;;0.17;0.17;;;;;;;8.91;66.54;97590.94;4420086;32;34196;-80
2023/12/22 02:22:11;;;;;;;0.00;0.00;;;;;;;9.05;65.92;97592.56;4419534;32;33447;-80
2023/12/22 02:24:40;;;;;;;0.00;0.00;;;;;;;9.11;64.96;97557.88;4406145;32;32662;-80
2023/12/22 02:27:30;;;;;;;0.00;0.00;;;;;;;9.33;64.99;97581.69;4407033;32;33003;-80
2023/12/22 02:30:05;;;;;;;0.00;0.00;;;;;;;8.82;66.41;97581.91;4416615;32;34854;-80
2023/12/22 02:32:36;;;;;;;0.52;0.52;;;;;;;9.12;65.35;97552.53;4408012;32;33352;-80
2023/12/22 02:35:07;;;;;;;0.00;0.00;;;;;;;9.33;64.70;97536.09;4407707;32;34185;-80
2023/12/22 02:37:36;;;;;;;0.00;0.00;;;;;;;9.43;63.77;97566.06;4407606;32;33556;-80
2023/12/22 02:40:04;;;;;;;0.00;0.00;;;;;;;9.19;64.78;97576.59;4422149;32;34049;-81
2023/12/22 02:42:33;;;;;;;0.00;0.00;;;;;;;9.08;65.01;97593.19;4395603;32;32899;-80
2023/12/22 02:45:00;;;;;;;0.47;0.37;;;;;;;9.04;65.34;97615.44;4406487;32;33447;-80
2023/12/22 02:47:29;;;;;;;0.00;0.00;;;;;;;9.07;64.93;97631.00;4372694;32;33520;-80
2023/12/22 02:49:57;;;;;;;0.00;0.00;;;;;;;8.77;65.71;97630.56;4395322;32;33888;-79
2023/12/22 02:52:25;;;;;;;0.00;0.00;;;;;;;8.64;66.13;97635.81;4407029;32;34044;-79
2023/12/22 02:54:52;;;;;;;0.00;0.00;;;;;;;8.64;66.14;97628.81;4395218;32;33712;-79
2023/12/22 02:57:20;;;;;;;0.10;0.10;;;;;;;8.26;67.75;97628.81;4395654;32;33937;-80
2023/12/22 02:59:48;;;;;;;0.00;0.00;;;;;;;8.76;65.94;97590.25;4395235;32;33091;-79
2023/12/22 03:02:15;;;;;;;0.00;0.00;;;;;;;9.03;64.69;97591.84;4393491;32;33668;-79
2023/12/22 03:04:43;;;;;;;0.22;0.22;;;;;;;8.96;64.73;97600.16;4407788;32;32206;-80
2023/12/22 03:07:11;;;;;;;0.00;0.00;;;;;;;9.14;63.77;97599.81;4394699;32;33469;-79
2023/12/22 03:09:39;;;;;;;0.88;0.70;;;;;;;9.04;64.10;97593.53;4405421;32;32543;-80
2023/12/22 03:12:07;;;;;;;0.00;0.00;;;;;;;8.78;65.41;97603.28;4408160;32;33638;-80
2023/12/22 03:14:36;;;;;;;0.00;0.00;;;;;;;8.75;64.68;97606.16;4407859;32;34519;-82
2023/12/22 03:17:05;;;;;;;0.10;0.10;;;;;;;8.66;65.23;97613.75;4395311;32;33202;-80
2023/12/22 03:19:33;;;;;;;0.00;0.00;;;;;;;8.57;64.78;97639.84;4395774;32;34572;-80
2023/12/22 03:22:02;;;;;;;0.00;0.00;;;;;;;8.90;63.80;97634.84;4407313;32;33590;-81
2023/12/22 03:24:29;;;;;;;0.00;0.00;;;;;;;8.16;65.90;97625.09;4392495;32;32884;-80
2023/12/22 03:26:57;;;;;;;0.00;0.00;;;;;;;8.25;65.66;97649.94;4405411;32;33366;-80
2023/12/22 03:29:25;;;;;;;0.00;0.00;;;;;;;8.56;64.34;97669.75;4408183;32;32518;-80
2023/12/22 03:31:53;;;;;;;0.80;0.30;;;;;;;8.52;64.58;97652.50;4394613;32;33840;-80
2023/12/22 03:34:21;;;;;;;0.10;0.03;;;;;;;8.46;64.46;97673.00;4407130;32;32983;-80
2023/12/22 03:36:49;;;;;;;0.20;0.20;;;;;;;8.51;64.08;97671.84;4407006;32;34399;-80
2023/12/22 03:39:17;;;;;;;0.00;0.00;;;;;;;8.34;63.98;97670.34;4394711;32;33386;-80
2023/12/22 03:41:44;;;;;;;0.00;0.00;;;;;;;8.06;64.17;97666.13;4406264;32;32839;-80
2023/12/22 03:44:12;;;;;;;0.00;0.00;;;;;;;7.59;64.57;97664.84;4407172;32;33272;-79
2023/12/22 03:46:39;;;;;;;0.00;0.00;;;;;;;7.76;63.85;97661.13;4407811;32;33851;-80
2023/12/22 03:49:08;;;;;;;0.00;0.00;;;;;;;7.25;62.94;97653.09;4408156;32;34158;-80
2023/12/22 03:51:37;;;;;;;0.00;0.00;;;;;;;7.59;62.04;97651.72;4393821;32;32874;-80
2023/12/22 03:54:05;;;;;;;0.05;0.05;;;;;;;7.59;61.20;97667.47;4406524;32;33549;-82
2023/12/22 03:56:32;;;;;;;0.00;0.00;;;;;;;7.65;61.43;97673.19;4407065;32;32991;-81
2023/12/22 03:59:00;;;;;;;0.00;0.00;;;;;;;8.01;59.96;97678.72;4420805;32;34212;-80
2023/12/22 04:01:28;;;;;;;0.88;0.50;;;;;;;7.94;61.62;97679.13;4407846;32;34100;-81
2023/12/22 04:03:56;;;;;;;0.00;0.00;;;;;;;8.07;58.91;97678.31;4406714;32;33104;-80
2023/12/22 04:06:24;;;;;;;0.00;0.00;;;;;;;8.12;59.08;97684.13;4407134;32;33308;-80
2023/12/22 04:08:51;;;;;;;0.00;0.00;;;;;;;8.19;58.15;97680.12;4395307;32;33473;-80
2023/12/22 04:11:19;;;;;;;6.82;1.30;;;;;;;8.11;58.20;97690.28;4407274;32;32895;-81
2023/12/22 04:13:47;;;;;;;0.00;0.00;;;;;;;8.05;57.89;97694.19;4395413;32;32782;-80
2023/12/22 04:16:14;;;;;;;0.00;0.00;;;;;;;7.74;58.32;97697.16;4404357;32;32274;-80
2023/12/22 04:18:42;;;;;;;0.20;0.20;;;;;;;8.19;57.30;97698.50;4400672;32;33526;-80
2023/12/22 04:21:10;;;;;;;0.00;0.00;;;;;;;8.03;57.12;97695.25;4406202;32;33044;-80
2023/12/22 04:23:38;;;;;;;0.00;0.00;;;;;;;8.26;57.51;97698.94;4394349;32;33113;-80
2023/12/22 04:26:06;;;;;;;0.00;0.00;;;;;;;7.96;58.13;97716.66;4407793;32;34205;-80
2023/12/22 04:28:33;;;;;;;0.00;0.00;;;;;;;7.98;57.38;97721.00;4407162;32;34207;-81
2023/12/22 04:31:01;;;;;;;0.00;0.00;;;;;;;8.11;57.78;97716.56;4393406;32;33080;-80
2023/12/22 04:33:29;;;;;;;0.00;0.00;;;;;;;7.80;57.92;97716.00;4386846;32;32386;-81
2023/12/22 04:35:56;;;;;;;0.00;0.00;;;;;;;8.08;58.16;97724.69;4421750;32;34317;-81
2023/12/22 04:38:24;;;;;;;0.00;0.00;;;;;;;8.19;57.18;97711.66;4395495;32;32811;-81
2023/12/22 04:40:52;;;;;;;0.00;0.00;;;;;;;7.85;58.19;97708.66;4394914;32;34010;-81
2023/12/22 04:43:20;;;;;;;0.00;0.00;;;;;;;8.12;57.83;97715.66;4406854;32;34031;-81
2023/12/22 04:45:47;;;;;;;0.00;0.00;;;;;;;7.90;58.33;97710.97;4407357;32;33950;-81
2023/12/22 04:48:16;;;;;;;0.00;0.00;;;;;;;8.12;57.67;97724.38;4407343;32;33329;-81
2023/12/22 04:50:43;;;;;;;10.80;1.75;;;;;;;8.04;57.69;97715.31;4407222;32;33564;-81
2023/12/22 04:53:11;;;;;;;0.10;0.10;;;;;;;7.99;56.91;97720.03;4419077;32;33437;-81
2023/12/22 04:55:39;;;;;;;0.00;0.00;;;;;;;7.97;57.98;97730.63;4405986;32;32699;-81
2023/12/22 04:58:07;;;;;;;0.00;0.00;;;;;;;8.05;57.11;97725.72;4417148;32;33463;-81
2023/12/22 05:00:34;;;;;;;0.00;0.00;;;;;;;8.22;56.90;97729.87;4405806;32;33394;-81
2023/12/22 05:03:03;;;;;;;0.00;0.00;;;;;;;8.03;56.77;97730.25;4406583;32;33046;-81
2023/12/22 05:05:31;;;;;;;0.00;0.00;;;;;;;8.06;57.26;97734.44;4394115;32;31771;-81
2023/12/22 05:07:59;;;;;;;0.00;0.00;;;;;;;7.93;58.41;97740.53;4396023;32;33029;-81
2023/12/22 05:10:29;;;;;;;0.00;0.00;;;;;;;8.19;56.96;97743.22;4384052;32;34195;-80
2023/12/22 05:12:56;;;;;;;0.00;0.00;;;;;;;8.42;56.32;97746.97;4408862;32;32397;-80
2023/12/22 05:15:24;;;;;;;0.00;0.00;;;;;;;8.45;56.19;97749.34;4396753;32;33232;-81
2023/12/22 05:17:52;;;;;;;0.00;0.00;;;;;;;8.40;56.55;97760.22;4407818;32;33105;-80
2023/12/22 05:20:20;;;;;;;0.00;0.00;;;;;;;8.33;56.15;97782.56;4408899;32;33548;-80
2023/12/22 05:22:48;;;;;;;0.00;0.00;;;;;;;8.29;56.32;97778.44;4407007;32;33551;-81
2023/12/22 05:25:16;;;;;;;0.00;0.00;;;;;;;8.15;56.31;97786.41;4395989;32;32993;-81
2023/12/22 05:27:44;;;;;;;0.47;0.47;;;;;;;8.03;56.63;97784.59;4406289;32;33858;-80
2023/12/22 05:30:12;;;;;;;0.00;0.00;;;;;;;8.18;55.18;97787.06;4408122;32;33382;-81
2023/12/22 05:32:40;;;;;;;0.00;0.00;;;;;;;7.73;56.26;97790.03;4422703;32;34594;-80
2023/12/22 05:35:10;;;;;;;0.00;0.00;;;;;;;7.76;56.37;97795.12;4409009;32;33420;-80
2023/12/22 05:37:39;;;;;;;0.90;0.68;;;;;;;7.98;55.61;97797.22;4409083;32;34409;-81
2023/12/22 05:40:09;;;;;;;6.30;0.75;;;;;;;7.95;55.16;97792.97;4395376;32;32853;-81
2023/12/22 05:42:37;;;;;;;0.00;0.00;;;;;;;8.07;54.95;97799.19;4422850;32;33482;-81
2023/12/22 05:45:06;;;;;;;0.00;0.00;;;;;;;8.02;54.99;97801.28;4395547;32;33633;-81
2023/12/22 05:47:34;;;;;;;0.00;0.00;;;;;;;7.97;55.84;97801.59;4408739;32;34328;-80
2023/12/22 05:50:03;;;;;;;0.00;0.00;;;;;;;7.78;54.81;97804.56;4408630;32;33593;-81
2023/12/22 05:52:30;;;;;;;2.55;1.15;;;;;;;7.80;54.52;97802.69;4409250;32;34500;-80
2023/12/22 05:54:58;;;;;;;0.00;0.00;;;;;;;7.94;53.84;97799.19;4407874;32;33632;-80
2023/12/22 05:57:26;;;;;;;0.00;0.00;;;;;;;7.85;54.02;97813.75;4408371;32;34391;-80
2023/12/22 05:59:54;;;;;;;0.00;0.00;;;;;;;7.26;54.44;97828.84;4408725;32;33621;-80
2023/12/22 06:02:22;;;;;;;3.08;0.35;;;;;;;7.24;55.00;97833.38;4409103;32;35447;-81
2023/12/22 06:04:49;;;;;;;0.00;0.00;;;;;;;7.21;53.83;97828.28;4395259;32;34190;-81
2023/12/22 06:07:19;;;;;;;0.00;0.00;;;;;;;7.24;53.66;97833.38;4420622;32;34432;-81
2023/12/22 06:09:47;;;;;;;0.00;0.00;;;;;;;7.28;53.71;97826.16;4408114;32;33639;-81
2023/12/22 06:12:15;;;;;;;6.05;0.52;;;;;;;7.33;52.79;97838.03;4408573;32;33516;-80
2023/12/22 06:14:42;;;;;;;0.17;0.13;;;;;;;7.45;53.14;97846.94;4406718;32;33257;-81
2023/12/22 06:17:10;;;;;;;0.05;0.00;;;;;;;7.36;52.73;97853.63;4396116;32;32988;-81
2023/12/22 06:19:38;;;;;;;0.00;0.00;;;;;;;7.57;52.03;97858.47;4408821;32;33187;-80
2023/12/22 06:22:05;;;;;;;0.00;0.00;;;;;;;7.61;51.83;97873.94;4395610;32;32946;-80
2023/12/22 06:24:35;;;;;;;0.00;0.00;;;;;;;7.75;51.20;97873.09;4396004;32;33365;-80
2023/12/22 06:27:03;;;;;;;0.30;0.30;;;;;;;7.79;51.02;97885.09;4419590;32;34067;-80
2023/12/22 06:29:31;;;;;;;0.00;0.00;;;;;;;7.85;50.35;97895.22;4408217;32;34210;-80
2023/12/22 06:31:59;;;;;;;0.22;0.22;;;;;;;7.12;53.16;97910.22;4406573;32;33919;-81
2023/12/22 06:34:27;;;;;;;0.00;0.00;;;;;;;7.41;51.43;97901.44;4395979;32;33317;-80
2023/12/22 06:36:54;;;;;;;0.10;0.10;;;;;;;7.68;50.88;97898.03;4407870;32;33101;-80
2023/12/22 06:39:22;;;;;;;0.30;0.30;;;;;;;7.48;51.61;97896.66;4405335;32;32858;-80
2023/12/22 06:41:51;;;;;;;0.00;0.00;;;;;;;7.14;52.62;97897.84;4420900;32;33928;-80
2023/12/22 06:44:18;;;;;;;20.95;1.05;;;;;;;7.24;52.54;97896.38;4392466;32;31613;-79
2023/12/22 06:46:46;;;;;;;0.00;0.00;;;;;;;7.42;51.36;97890.00;4404552;32;34134;-80
2023/12/22 06:49:14;;;;;;;0.00;0.00;;;;;;;7.47;51.51;97883.63;4417907;32;33419;-80
2023/12/22 06:51:42;;;;;;;0.15;0.15;;;;;;;7.19;51.19;97880.06;4405657;32;32297;-80
2023/12/22 06:54:10;;;;;;;1.98;1.45;;;;;;;7.35;50.57;97888.66;4405791;32;33913;-80
2023/12/22 06:56:42;;;;;;;0.13;0.13;;;;;;;7.41;50.57;97890.09;4392083;32;34590;-80
2023/12/22 06:59:11;;;;;;;0.52;0.52;;;;;;;7.42;50.09;97897.87;4404168;32;32403;-80
2023/12/22 07:01:42;;;;;;;0.00;0.00;;;;;;;7.07;52.24;97904.41;4417348;32;35132;-79
2023/12/22 07:05:06;;;;;;;0.00;0.00;;;;;;;6.80;50.32;97909.50;4391585;32;32604;-80
2023/12/22 07:07:36;;;;;;;0.00;0.00;;;;;;;6.92;50.56;97908.78;4404545;32;33689;-80
2023/12/22 07:10:04;;;;;;;0.00;0.00;;;;;;;7.38;49.03;97901.62;4405095;32;32975;-80
2023/12/22 07:12:31;;;;;;;0.00;0.00;;;;;;;7.30;49.99;97905.66;4417989;32;33692;-80
2023/12/22 07:15:00;;;;;;;0.00;0.00;;;;;;;7.42;48.92;97911.00;4403387;32;34298;-81
2023/12/22 07:17:28;;;;;;;0.00;0.00;;;;;;;7.78;48.54;97920.16;4418253;32;33864;-81
2023/12/22 07:19:57;;;;;;;0.10;0.10;;;;;;;7.55;48.94;97918.13;4404369;32;36268;-81
2023/12/22 07:22:26;;;;;;;0.00;0.00;;;;;;;7.76;48.20;97916.81;4393184;32;34044;-80
2023/12/22 07:24:55;;;;;;;0.00;0.00;;;;;;;7.44;50.35;97917.00;4402615;32;33287;-80
2023/12/22 07:27:24;;;;;;;0.00;0.00;;;;;;;7.71;48.58;97911.00;4384213;32;31779;-79
2023/12/22 07:29:54;;;;;;;0.00;0.00;;;;;;;7.68;48.88;97898.03;4387648;32;33613;-80
2023/12/22 07:32:23;;;;;;;0.75;0.73;;;;;;;7.84;48.50;97897.94;4398929;32;33274;-79
2023/12/22 07:34:50;;;;;;;1.55;0.85;;;;;;;7.80;48.79;97897.28;4385914;32;32522;-79
2023/12/22 07:37:19;;;;;;;0.05;0.05;;;;;;;7.84;48.78;97896.16;4400176;32;32964;-80
2023/12/22 07:39:47;;;;;;;4.18;1.35;;;;;;;7.77;49.55;97902.72;4385660;32;32263;-80
2023/12/22 07:42:16;;;;;;;0.00;0.00;;;;;;;7.77;50.13;97902.72;4413970;32;33665;-79
2023/12/22 07:44:46;;;;;;;0.00;0.00;;;;;;;7.64;50.50;97909.66;4390396;32;34944;-79
2023/12/22 07:47:13;;;;;;;0.00;0.00;;;;;;;7.88;50.52;97915.16;4401908;32;33894;-79
2023/12/22 07:49:42;;;;;;;0.03;0.03;;;;;;;7.67;50.97;97906.84;4403477;32;33512;-80
2023/12/22 07:52:13;;;;;;;0.00;0.00;;;;;;;7.87;50.67;97906.44;4390350;32;32118;-80
2023/12/22 07:54:41;;;;;;;0.25;0.25;;;;;;;7.57;52.38;97911.00;4404450;32;34631;-81
2023/12/22 07:57:12;;;;;;;2.45;1.12;;;;;;;7.70;51.72;97912.78;4404483;32;31807;-81
2023/12/22 07:59:40;;;;;;;0.00;0.00;;;;;;;8.06;51.16;97914.00;4404139;32;32838;-81
2023/12/22 08:02:08;;;;;;;0.00;0.00;;;;;;;8.10;50.94;97918.16;4404009;32;33821;-80
2023/12/22 08:04:36;;;;;;;0.17;0.17;;;;;;;7.98;50.88;97934.72;4402697;32;34568;-80
2023/12/22 08:07:04;;;;;;;0.00;0.00;;;;;;;8.17;50.94;97935.22;4402393;32;34842;-80
2023/12/22 08:09:32;;;;;;;1.50;1.20;;;;;;;8.25;51.03;97928.63;4404209;32;31627;-81
2023/12/22 08:12:00;;;;;;;0.80;0.80;;;;;;;8.57;50.16;97918.69;4392285;32;32343;-80
2023/12/22 08:14:29;;;;;;;2.47;2.30;;;;;;;8.37;50.51;97922.63;4392106;32;32475;-81
2023/12/22 08:16:57;;;;;;;0.30;0.30;;;;;;;8.31;50.51;97913.31;4391204;32;33474;-80
2023/12/22 08:19:26;;;;;;;1.10;1.10;;;;;;;8.39;50.69;97911.03;4379335;32;32132;-80
2023/12/22 08:21:58;;;;;;;1.12;1.02;;;;;;;8.67;49.86;97910.09;4403822;32;33990;-80
2023/12/22 08:24:29;;;;;;;0.00;0.00;;;;;;;8.63;50.51;97915.66;4403036;32;34711;-80
2023/12/22 08:26:57;;;;;;;0.00;0.00;;;;;;;8.53;50.78;97912.78;4389637;32;33039;-80
2023/12/22 08:29:25;;;;;;;0.00;0.00;;;;;;;8.31;50.86;97912.44;4404063;32;32904;-80
2023/12/22 08:31:53;;;;;;;0.85;0.85;;;;;;;8.20;51.97;97915.78;4416976;32;33386;-81
2023/12/22 08:34:21;;;;;;;1.25;0.88;;;;;;;8.19;51.77;97914.94;4402556;32;34771;-80
2023/12/22 08:36:48;;;;;;;0.00;0.00;;;;;;;8.13;51.35;97922.38;4391899;32;33998;-81
2023/12/22 08:39:16;;;;;;;1.77;1.48;;;;;;;8.33;51.37;97932.44;4380191;32;33041;-80
2023/12/22 08:41:45;;;;;;;20.15;15.20;;;;;;;8.30;50.83;97932.62;4390834;32;33743;-81
2023/12/22 08:44:17;;;;;;;7.68;6.55;;;;;;;8.67;50.06;97928.50;4403876;32;33567;-80
2023/12/22 08:47:28;;;;;;;6.28;3.55;;;;;;;8.46;50.39;97933.38;4371952;32;35048;-81
2023/12/22 08:49:56;;;;;;;3.28;3.05;;;;;;;8.59;50.52;97925.56;4394320;32;34026;-81
2023/12/22 08:52:24;;;;;;;1.15;1.15;;;;;;;8.66;50.23;97933.88;4406534;32;34630;-80
2023/12/22 08:54:51;;;;;;;0.65;0.52;;;;;;;8.71;49.69;97950.19;4404514;32;32606;-80
2023/12/22 08:57:19;;;;;;;0.85;0.82;;;;;;;8.81;49.62;97956.53;4394227;32;34363;-81
2023/12/22 08:59:47;;;;;;;2.28;2.17;;;;;;;8.94;50.11;97954.78;4407054;32;33976;-81
2023/12/22 09:02:15;;;;;;;4.30;2.12;;;;;;;9.14;48.85;97949.97;4406024;32;32116;-81
2023/12/22 09:04:43;;;;;;;0.45;0.45;;;;;;;9.20;49.35;97960.09;4405203;32;34175;-81
2023/12/22 09:07:10;;;;;;;17.37;1.70;;;;;;;9.80;48.16;97959.47;4389635;32;33051;-81
2023/12/22 09:09:40;;;;;;;16.23;7.47;;;;;;;9.58;47.40;97962.75;4404946;32;32935;-81
2023/12/22 09:12:08;;;;;;;3.22;2.92;;;;;;;9.62;48.42;97961.59;4393038;32;32719;-81
2023/12/22 09:14:35;;;;;;;0.30;0.30;;;;;;;9.10;48.30;97959.88;4405047;32;33545;-81
2023/12/22 09:17:03;;;;;;;0.13;0.13;;;;;;;9.41;46.55;97952.53;4392311;32;34757;-81
2023/12/22 09:19:38;;;;;;;1.67;1.62;;;;;;;9.14;47.51;97971.03;4377566;32;34100;-80
2023/12/22 09:22:06;;;;;;;4.70;4.40;;;;;;;9.20;47.25;97954.81;4409010;32;33438;-81
2023/12/22 09:24:34;;;;;;;0.17;0.17;;;;;;;9.21;47.44;97964.44;4406678;32;34430;-81
2023/12/22 09:27:02;;;;;;;10.45;9.05;;;;;;;9.72;46.94;97943.34;4392917;32;34224;-81
2023/12/22 09:29:33;;;;;;;18.10;15.43;;;;;;;9.69;46.37;97938.31;4403035;32;31890;-81
2023/12/22 09:32:02;;;;;;;1.95;1.85;;;;;;;9.61;47.04;97935.34;4403661;32;35318;-81
2023/12/22 09:34:30;;;;;;;11.73;5.95;;;;;;;9.83;46.59;97926.81;4405972;32;33114;-82
2023/12/22 09:36:58;;;;;;;5.05;4.60;;;;;;;9.57;45.68;97931.25;4393598;32;33230;-81
2023/12/22 09:39:28;;;;;;;0.95;0.93;;;;;;;10.06;45.25;97946.25;4393654;32;32499;-81
2023/12/22 09:41:56;;;;;;;0.10;0.10;;;;;;;10.09;44.65;97933.69;4404765;32;34336;-81
2023/12/22 09:44:24;;;;;;;0.47;0.47;;;;;;;10.20;44.84;97952.22;4403732;32;33037;-81
2023/12/22 09:46:52;;;;;;;0.30;0.30;;;;;;;10.30;44.62;97948.94;4385683;32;33942;-81
2023/12/22 09:49:21;;;;;;;0.00;0.00;;;;;;;10.34;44.96;97958.34;4394024;32;32300;-81
2023/12/22 09:51:50;;;;;;;0.13;0.13;;;;;;;10.11;45.81;97944.13;4404357;32;33819;-81
2023/12/22 09:54:19;;;;;;;0.10;0.10;;;;;;;9.83;46.47;97956.63;4407538;32;34019;-81
2023/12/22 09:56:47;;;;;;;0.20;0.20;;;;;;;10.11;45.77;97949.38;4382571;32;32840;-81
2023/12/22 09:59:16;;;;;;;0.80;0.43;;;;;;;9.95;45.91;97949.66;4392746;32;32413;-81
2023/12/22 10:01:48;;;;;;;0.43;0.43;;;;;;;9.85;46.02;97941.53;4404657;32;32999;-81
2023/12/22 10:04:16;;;;;;;0.00;0.00;;;;;;;9.86;46.73;97937.94;4394100;32;33861;-81
2023/12/22 10:06:47;;;;;;;1.25;1.15;;;;;;;10.04;46.30;97941.09;4405032;32;33567;-81
2023/12/22 10:09:18;;;;;;;3.15;2.95;;;;;;;9.42;48.07;97931.34;4404452;32;33272;-81
2023/12/22 10:11:49;;;;;;;0.77;0.77;;;;;;;9.36;47.72;97939.69;4405607;32;33258;-81
2023/12/22 10:14:22;;;;;;;15.40;7.72;;;;;;;9.84;47.61;97933.75;4402312;32;34746;-81
2023/12/22 10:16:50;;;;;;;6.22;3.03;;;;;;;9.53;47.42;97935.87;4418073;32;33833;-81
2023/12/22 10:19:19;;;;;;;0.22;0.22;;;;;;;10.08;46.22;97939.09;4405408;32;32821;-81
2023/12/22 10:21:48;;;;;;;0.20;0.20;;;;;;;9.71;46.64;97952.22;4392759;32;33598;-81
2023/12/22 10:24:47;;;;;;;0.98;0.32;;;;;;;9.86;47.67;97948.50;4379495;32;33135;-81
2023/12/22 10:27:21;;;;;;;0.20;0.20;;;;;;;9.04;47.98;97951.53;4418819;32;34035;-81
2023/12/22 10:29:56;;;;;;;0.05;0.05;;;;;;;9.36;48.26;97938.84;4393787;32;31343;-81
2023/12/22 10:32:24;;;;;;;0.00;0.00;;;;;;;9.52;48.12;97936.00;4396655;32;34634;-81
2023/12/22 10:34:52;;;;;;;0.00;0.00;;;;;;;9.30;47.13;97912.91;4405987;32;31838;-81
2023/12/22 10:37:21;;;;;;;0.00;0.00;;;;;;;9.70;47.51;97921.53;4404568;32;33387;-81
2023/12/22 10:39:53;;;;;;;0.65;0.65;;;;;;;9.95;46.57;97887.22;4393069;32;33438;-81
2023/12/22 10:42:21;;;;;;;0.70;0.65;;;;;;;10.19;45.80;97886.41;4405366;32;34040;-81
2023/12/22 10:44:49;;;;;;;0.50;0.50;;;;;;;9.81;46.14;97883.88;4389311;32;33122;-81
2023/12/22 10:47:21;;;;;;;26.95;14.68;;;;;;;10.17;47.37;97886.53;4403821;32;33672;-81
2023/12/22 10:49:49;;;;;;;6.10;4.43;;;;;;;10.43;45.73;97897.00;4391097;32;32977;-80
2023/12/22 10:52:18;;;;;;;3.12;2.22;;;;;;;10.11;46.82;97883.47;4392248;32;34468;-81
2023/12/22 10:54:46;;;;;;;1.40;1.30;;;;;;;10.03;45.43;97883.19;4417430;32;32881;-80
2023/12/22 10:57:17;;;;;;;0.28;0.28;;;;;;;9.85;47.16;97888.81;4404298;32;34485;-80
2023/12/22 10:59:46;;;;;;;7.23;3.87;;;;;;;9.85;46.20;97888.81;4391242;32;31766;-80
2023/12/22 11:02:28;;;;;;;1.95;1.55;;;;;;;9.79;45.96;97886.62;4405360;32;33203;-80
2023/12/22 11:05:08;;;;;;;2.15;2.00;;;;;;;9.83;46.33;97889.91;4391638;32;31818;-80
2023/12/22 11:07:41;;;;;;;2.00;1.90;;;;;;;9.66;47.59;97909.53;4392016;32;33538;-81
2023/12/22 11:10:10;;;;;;;1.15;0.70;;;;;;;9.87;46.21;97908.00;4392401;32;33808;-80
2023/12/22 11:12:38;;;;;;;1.45;0.47;;;;;;;10.36;45.24;97912.44;4405551;32;31547;-81
2023/12/22 11:15:06;;;;;;;0.32;0.28;;;;;;;10.79;44.56;97905.78;4393215;32;33156;-80
2023/12/22 11:17:39;;;;;;;0.00;0.00;;;;;;;10.80;43.59;97902.19;4392880;32;34807;-80
2023/12/22 11:20:12;;;;;;;;;;;;;;;10.67;43.49;97912.81;4381135;32;32833;-80
2023/12/22 11:22:40;;;;;;;0.00;0.00;;;;;;;10.51;43.84;97890.19;4410327;32;33980;-81
2023/12/22 11:25:09;;;;;;;0.10;0.00;;;;;;;10.43;43.78;97900.47;4403959;32;34847;-80
2023/12/22 11:27:43;;;;;;;0.75;0.47;;;;;;;10.13;45.62;97903.50;4403990;32;33328;-80
2023/12/22 11:30:12;;;;;;;0.00;0.00;;;;;;;10.13;44.66;97911.44;4392343;32;32692;-81
2023/12/22 11:32:40;;;;;;;0.00;0.00;;;;;;;9.98;45.52;97910.72;4391131;32;32865;-80
2023/12/22 11:35:07;;;;;;;0.00;0.00;;;;;;;9.71;46.30;97928.50;4405848;32;34328;-80
2023/12/22 11:37:38;;;;;;;0.00;0.00;;;;;;;9.85;46.45;97914.34;4404417;32;34428;-80
2023/12/22 11:40:06;;;;;;;0.43;0.25;;;;;;;9.55;45.97;97941.91;4393970;32;32224;-81
2023/12/22 11:42:42;;;;;;;0.00;0.00;;;;;;;9.63;45.84;97928.16;4404652;32;34670;-81
2023/12/22 11:45:15;;;;;;;0.00;0.00;;;;;;;10.14;44.62;97912.25;4393503;32;33249;-81
2023/12/22 11:47:43;;;;;;;0.30;0.30;;;;;;;10.17;43.89;97919.97;4402900;32;33178;-80
2023/12/22 11:50:11;;;;;;;0.00;0.00;;;;;;;9.81;44.32;97903.16;4404966;32;33271;-80